createdAt,value
2022-08-11T00:00:39.471Z,13.39
2022-08-11T00:01:39.198Z,13.45
2022-08-11T00:02:39.952Z,13.45
2022-08-11T00:03:48.282Z,13.45
2022-08-11T00:04:39.252Z,13.44
2022-08-11T00:05:39.182Z,13.4
2022-08-11T00:06:39.173Z,13.39
2022-08-11T00:07:39.409Z,13.37
2022-08-11T00:08:39.141Z,13.36
2022-08-11T00:09:44.140Z,13.37
2022-08-11T00:10:39.131Z,13.4
2022-08-11T00:11:39.119Z,13.35
2022-08-11T00:12:39.758Z,13.37
2022-08-11T00:13:39.102Z,13.35
2022-08-11T00:14:42.207Z,13.4
2022-08-11T00:15:38.821Z,13.4
2022-08-11T00:16:39.332Z,13.37
2022-08-11T00:17:39.332Z,13.36
2022-08-11T00:18:39.311Z,13.39
2022-08-11T00:20:19.812Z,13.4
2022-08-11T00:20:39.038Z,13.4
2022-08-11T00:22:09.373Z,13.45
2022-08-11T00:22:39.802Z,13.48
2022-08-11T00:23:39.263Z,13.42
2022-08-11T00:25:02.295Z,13.4
2022-08-11T00:25:38.993Z,13.4
2022-08-11T00:26:38.731Z,13.45
2022-08-11T00:27:38.976Z,13.45
2022-08-11T00:28:38.969Z,13.45
2022-08-11T00:29:54.079Z,13.44
2022-08-11T00:30:39.209Z,13.45
2022-08-11T00:31:38.942Z,13.45
2022-08-11T00:32:39.397Z,13.53
2022-08-11T00:33:49.070Z,13.47
2022-08-11T00:34:38.914Z,13.47
2022-08-11T00:36:01.100Z,13.45
2022-08-11T00:36:38.896Z,13.45
2022-08-11T00:37:38.887Z,13.42
2022-08-11T00:38:39.138Z,13.42
2022-08-11T00:39:39.088Z,13.48
2022-08-11T00:40:39.221Z,13.37
2022-08-11T00:41:38.854Z,13.51
2022-08-11T00:42:39.017Z,13.5
2022-08-11T00:43:39.097Z,13.54
2022-08-11T00:44:38.827Z,13.45
2022-08-11T00:45:39.073Z,13.47
2022-08-11T00:46:38.808Z,13.53
2022-08-11T00:47:39.060Z,13.47
2022-08-11T00:48:38.800Z,13.45
2022-08-11T00:49:39.043Z,13.51
2022-08-11T00:50:38.778Z,13.5
2022-08-11T00:52:10.139Z,13.53
2022-08-11T00:52:39.096Z,13.4
2022-08-11T00:53:39.004Z,13.53
2022-08-11T00:54:38.997Z,13.5
2022-08-11T00:55:38.990Z,13.48
2022-08-11T00:56:38.923Z,13.5
2022-08-11T00:57:42.754Z,13.53
2022-08-11T00:58:40.036Z,13.5
2022-08-11T00:59:40.927Z,13.53
2022-08-11T01:00:39.391Z,13.51
2022-08-11T01:01:38.672Z,13.42
2022-08-11T01:02:39.407Z,13.48
2022-08-11T01:03:39.172Z,13.54
2022-08-11T01:04:38.644Z,13.54
2022-08-11T01:05:39.155Z,13.44
2022-08-11T01:06:40.437Z,13.54
2022-08-11T01:08:07.833Z,13.5
2022-08-11T01:08:38.880Z,13.36
2022-08-11T01:09:39.119Z,13.53
2022-08-11T01:10:39.107Z,13.48
2022-08-11T01:11:38.840Z,13.48
2022-08-11T01:12:39.360Z,13.45
2022-08-11T01:13:39.082Z,13.44
2022-08-11T01:14:39.654Z,13.44
2022-08-11T01:15:38.811Z,13.42
2022-08-11T01:16:38.800Z,13.44
2022-08-11T01:17:38.792Z,13.37
2022-08-11T01:18:39.035Z,13.37
2022-08-11T01:20:51.782Z,13.35
2022-08-11T01:21:01.539Z,13.31
2022-08-11T01:22:01.072Z,13.29
2022-08-11T01:23:01.522Z,13.2
2022-08-11T01:24:01.512Z,13.37
2022-08-11T01:25:01.251Z,13.35
2022-08-11T01:26:02.800Z,13.29
2022-08-11T01:27:01.485Z,13.29
2022-08-11T01:28:01.476Z,13.32
2022-08-11T01:29:01.477Z,13.32
2022-08-11T01:30:01.458Z,13.24
2022-08-11T01:31:01.470Z,13.24
2022-08-11T01:32:02.363Z,13.27
2022-08-11T01:33:01.179Z,13.21
2022-08-11T01:34:01.173Z,13.21
2022-08-11T01:35:01.156Z,13.21
2022-08-11T01:36:00.895Z,13.16
2022-08-11T01:37:02.040Z,13.21
2022-08-11T01:38:00.878Z,13.19
2022-08-11T01:39:01.120Z,13.16
2022-08-11T01:40:01.349Z,13.17
2022-08-11T01:41:01.363Z,13.16
2022-08-11T01:42:01.096Z,13.14
2022-08-11T01:43:01.091Z,13.2
2022-08-11T01:44:01.076Z,13.1
2022-08-11T01:45:01.326Z,13.09
2022-08-11T01:46:01.316Z,13.14
2022-08-11T01:47:01.350Z,13.09
2022-08-11T01:48:01.046Z,13.1
2022-08-11T01:49:01.033Z,13.13
2022-08-11T01:50:19.424Z,13.09
2022-08-11T01:51:21.803Z,13.13
2022-08-11T01:52:19.397Z,13.01
2022-08-11T01:53:19.198Z,13.09
2022-08-11T01:54:19.378Z,13.06
2022-08-11T01:55:19.373Z,13.07
2022-08-11T01:56:19.367Z,12.99
2022-08-11T01:57:19.362Z,12.95
2022-08-11T01:58:19.346Z,12.94
2022-08-11T01:59:19.215Z,12.96
2022-08-11T02:00:19.069Z,12.98
2022-08-11T02:01:19.607Z,13.01
2022-08-11T02:03:19.047Z,12.94
2022-08-11T02:04:19.289Z,12.88
2022-08-11T02:05:19.027Z,12.96
2022-08-11T02:06:19.277Z,12.91
2022-08-11T02:07:19.007Z,12.88
2022-08-11T02:08:21.287Z,12.89
2022-08-11T02:09:24.350Z,12.84
2022-08-11T02:10:21.573Z,12.92
2022-08-11T02:11:19.267Z,12.83
2022-08-11T02:12:19.225Z,12.83
2022-08-11T02:13:28.733Z,12.8
2022-08-11T02:14:19.204Z,12.83
2022-08-11T02:15:19.196Z,12.77
2022-08-11T02:16:19.505Z,12.78
2022-08-11T02:17:19.173Z,12.74
2022-08-11T02:18:20.618Z,12.73
2022-08-11T02:19:18.898Z,12.74
2022-08-11T02:20:19.156Z,12.76
2022-08-11T02:21:18.885Z,12.76
2022-08-11T02:22:18.869Z,12.69
2022-08-11T02:24:10.575Z,12.66
2022-08-11T02:24:19.812Z,12.74
2022-08-11T02:25:22.253Z,12.77
2022-08-11T02:26:20.086Z,12.77
2022-08-11T02:27:19.526Z,12.73
2022-08-11T02:28:20.031Z,12.7
2022-08-11T02:29:19.793Z,12.66
2022-08-11T02:30:19.755Z,12.7
2022-08-11T02:32:33.463Z,12.66
2022-08-11T02:32:48.356Z,12.69
2022-08-11T02:33:46.268Z,12.66
2022-08-11T02:35:02.020Z,12.63
2022-08-11T02:35:45.984Z,12.71
2022-08-11T02:36:46.237Z,12.63
2022-08-11T02:37:45.967Z,12.63
2022-08-11T02:38:46.225Z,12.66
2022-08-11T02:39:47.541Z,12.66
2022-08-11T02:40:45.954Z,12.73
2022-08-11T02:41:45.935Z,12.69
2022-08-11T02:42:47.174Z,12.63
2022-08-11T02:43:53.678Z,12.61
2022-08-11T02:44:46.170Z,12.59
2022-08-11T02:45:46.154Z,12.59
2022-08-11T02:46:46.143Z,12.55
2022-08-11T02:47:46.132Z,12.55
2022-08-11T02:48:46.130Z,12.62
2022-08-11T02:49:45.600Z,12.61
2022-08-11T02:50:45.848Z,12.56
2022-08-11T02:51:45.852Z,12.62
2022-08-11T02:52:45.832Z,12.62
2022-08-11T02:53:58.193Z,12.53
2022-08-11T02:54:46.068Z,12.63
2022-08-11T02:56:01.531Z,12.55
2022-08-11T02:56:46.052Z,12.63
2022-08-11T02:57:46.039Z,12.53
2022-08-11T02:58:46.524Z,12.53
2022-08-11T02:59:46.033Z,12.52
2022-08-11T03:00:46.015Z,12.61
2022-08-11T03:01:46.251Z,12.51
2022-08-11T03:02:46.038Z,12.61
2022-08-11T03:03:45.481Z,12.52
2022-08-11T03:04:45.719Z,12.47
2022-08-11T03:05:45.965Z,12.51
2022-08-11T03:06:45.962Z,12.48
2022-08-11T03:07:45.688Z,12.53
2022-08-11T03:08:45.938Z,12.51
2022-08-11T03:09:45.694Z,12.55
2022-08-11T03:10:45.921Z,12.45
2022-08-11T03:11:45.396Z,12.56
2022-08-11T03:12:48.039Z,12.51
2022-08-11T03:13:45.920Z,12.58
2022-08-11T03:14:45.889Z,12.58
2022-08-11T03:15:47.053Z,12.56
2022-08-11T03:16:45.871Z,12.55
2022-08-11T03:17:45.852Z,12.52
2022-08-11T03:18:45.843Z,12.56
2022-08-11T03:19:45.835Z,12.48
2022-08-11T03:20:48.174Z,12.48
2022-08-11T03:22:08.769Z,12.56
2022-08-11T03:22:45.546Z,12.59
2022-08-11T03:23:45.798Z,12.53
2022-08-11T03:24:45.787Z,12.47
2022-08-11T03:25:45.523Z,12.47
2022-08-11T03:26:45.511Z,12.61
2022-08-11T03:27:45.761Z,12.52
2022-08-11T03:28:45.923Z,12.56
2022-08-11T03:29:45.738Z,12.56
2022-08-11T03:30:45.470Z,12.52
2022-08-11T03:31:48.416Z,12.51
2022-08-11T03:49:10.655Z,12.41
2022-08-11T03:50:08.856Z,12.25
2022-08-11T03:51:09.106Z,12.33
2022-08-11T03:52:09.076Z,12.34
2022-08-11T03:53:08.857Z,12.31
2022-08-11T03:54:09.064Z,12.33
2022-08-11T03:55:08.537Z,12.28
2022-08-11T03:56:09.029Z,12.36
2022-08-11T03:57:09.024Z,12.37
2022-08-11T03:58:08.752Z,12.25
2022-08-11T03:59:08.484Z,12.25
2022-08-11T04:00:08.991Z,12.26
2022-08-11T04:01:09.058Z,12.23
2022-08-11T04:02:09.155Z,12.2
2022-08-11T04:03:08.947Z,12.2
2022-08-11T04:04:09.212Z,12.2
2022-08-11T04:05:09.459Z,12.34
2022-08-11T04:06:09.193Z,12.22
2022-08-11T04:07:09.439Z,12.28
2022-08-11T04:08:09.165Z,12.31
2022-08-11T04:09:10.296Z,12.33
2022-08-11T04:10:08.892Z,12.26
2022-08-11T04:11:09.136Z,12.31
2022-08-11T04:12:08.871Z,12.31
2022-08-11T04:13:09.116Z,12.31
2022-08-11T04:14:09.099Z,12.36
2022-08-11T04:15:09.092Z,12.36
2022-08-11T04:16:16.418Z,12.29
2022-08-11T04:17:08.816Z,12.36
2022-08-11T04:18:09.322Z,12.28
2022-08-11T04:19:08.802Z,12.38
2022-08-11T04:20:09.297Z,12.43
2022-08-11T04:21:09.320Z,12.44
2022-08-11T04:22:09.320Z,12.44
2022-08-11T04:23:09.015Z,12.44
2022-08-11T04:24:49.847Z,12.56
2022-08-11T04:26:02.554Z,12.47
2022-08-11T04:26:43.316Z,12.59
2022-08-11T04:27:43.891Z,12.62
2022-08-11T04:28:54.712Z,12.47
2022-08-11T04:30:14.318Z,12.55
2022-08-11T04:30:46.056Z,12.65
2022-08-11T04:31:56.370Z,12.62
2022-08-11T04:32:42.314Z,12.65
2022-08-11T04:33:43.686Z,12.61
2022-08-11T04:34:42.128Z,12.58
2022-08-11T04:35:44.039Z,12.59
2022-08-11T04:36:42.102Z,12.63
2022-08-11T04:37:41.834Z,12.66
2022-08-11T04:38:41.824Z,12.73
2022-08-11T04:39:42.359Z,12.8
2022-08-11T04:40:41.549Z,12.8
2022-08-11T04:41:42.052Z,12.89
2022-08-11T04:42:42.257Z,12.88
2022-08-11T04:44:08.752Z,12.91
2022-08-11T04:44:41.776Z,13.02
2022-08-11T04:45:42.013Z,12.98
2022-08-11T04:46:42.011Z,12.95
2022-08-11T04:48:08.519Z,13.07
2022-08-11T04:48:41.956Z,13.09
2022-08-11T04:49:41.724Z,13.1
2022-08-11T04:50:41.457Z,13.06
2022-08-11T04:51:41.961Z,13.13
2022-08-11T04:52:43.440Z,13.21
2022-08-11T04:53:41.690Z,13.21
2022-08-11T04:54:41.678Z,13.19
2022-08-11T04:55:42.974Z,13.24
2022-08-11T04:56:41.660Z,13.25
2022-08-11T04:57:41.902Z,13.25
2022-08-11T04:58:41.907Z,13.31
2022-08-11T04:59:42.587Z,13.36
2022-08-11T05:00:41.883Z,13.28
2022-08-11T05:01:42.720Z,13.31
2022-08-11T05:02:42.064Z,13.37
2022-08-11T05:03:41.339Z,13.44
2022-08-11T05:04:41.330Z,13.45
2022-08-11T05:05:57.422Z,13.4
2022-08-11T05:06:41.562Z,13.5
2022-08-11T05:07:41.595Z,13.51
2022-08-11T05:08:41.548Z,13.48
2022-08-11T05:09:41.541Z,13.48
2022-08-11T05:10:46.200Z,13.54
2022-08-11T05:11:41.520Z,13.53
2022-08-11T05:12:42.153Z,13.5
2022-08-11T05:13:41.503Z,13.6
2022-08-11T05:14:41.495Z,13.58
2022-08-11T05:15:53.687Z,13.6
2022-08-11T05:16:41.738Z,13.68
2022-08-11T05:17:41.467Z,13.66
2022-08-11T05:18:41.458Z,13.73
2022-08-11T05:19:41.446Z,13.84
2022-08-11T05:20:41.700Z,13.78
2022-08-11T05:21:50.281Z,13.81
2022-08-11T05:22:42.088Z,13.87
2022-08-11T05:23:41.670Z,13.9
2022-08-11T05:24:41.661Z,13.91
2022-08-11T05:26:52.029Z,13.99
2022-08-11T05:27:01.541Z,13.97
2022-08-11T05:28:01.324Z,14.05
2022-08-11T05:29:08.226Z,14.11
2022-08-11T05:30:01.005Z,14.11
2022-08-11T05:31:01.499Z,14.2
2022-08-11T05:32:00.982Z,14.27
2022-08-11T05:33:06.256Z,14.3
2022-08-11T05:34:01.224Z,14.27
2022-08-11T05:35:01.220Z,14.3
2022-08-11T05:36:07.177Z,14.42
2022-08-11T05:37:29.979Z,14.42
2022-08-11T05:38:01.437Z,14.42
2022-08-11T05:39:01.178Z,14.48
2022-08-11T05:40:01.088Z,14.45
2022-08-11T05:41:04.866Z,14.49
2022-08-11T05:42:01.425Z,14.52
2022-08-11T05:43:01.137Z,14.57
2022-08-11T05:44:25.908Z,14.6
2022-08-11T05:45:01.385Z,14.66
2022-08-11T05:46:13.809Z,14.67
2022-08-11T05:47:01.115Z,14.74
2022-08-11T05:48:01.360Z,14.67
2022-08-11T05:49:01.117Z,14.79
2022-08-11T05:50:03.390Z,14.85
2022-08-11T05:51:02.870Z,14.94
2022-08-11T05:52:18.721Z,15.01
2022-08-11T05:53:02.283Z,15.04
2022-08-11T05:54:02.532Z,15
2022-08-11T05:55:09.452Z,15.1
2022-08-11T05:56:07.994Z,15.02
2022-08-11T05:57:01.285Z,15.12
2022-08-11T05:58:01.020Z,15.16
2022-08-11T05:59:01.502Z,15.13
2022-08-11T06:00:01.270Z,15.25
2022-08-11T06:01:00.995Z,15.23
2022-08-11T06:02:01.497Z,15.31
2022-08-11T06:03:00.733Z,15.38
2022-08-11T06:04:03.146Z,15.41
2022-08-11T06:05:00.970Z,15.45
2022-08-11T06:06:01.222Z,15.49
2022-08-11T06:07:00.959Z,15.55
2022-08-11T06:08:01.977Z,15.59
2022-08-11T06:09:01.854Z,15.67
2022-08-11T06:10:00.929Z,15.71
2022-08-11T06:11:00.663Z,15.73
2022-08-11T06:12:01.175Z,15.75
2022-08-11T06:13:01.254Z,15.73
2022-08-11T06:14:00.908Z,15.89
2022-08-11T06:15:00.892Z,15.89
2022-08-11T06:16:06.362Z,15.99
2022-08-11T06:17:00.887Z,16.06
2022-08-11T06:18:00.878Z,16.11
2022-08-11T06:19:00.610Z,16.21
2022-08-11T06:20:10.643Z,16.18
2022-08-11T06:21:00.600Z,16.22
2022-08-11T06:22:00.595Z,16.25
2022-08-11T06:23:00.844Z,16.27
2022-08-11T06:24:00.833Z,16.3
2022-08-11T06:25:01.089Z,16.26
2022-08-11T06:26:01.485Z,16.34
2022-08-11T06:27:18.161Z,16.36
2022-08-11T06:28:00.807Z,16.34
2022-08-11T06:29:04.951Z,16.42
2022-08-11T06:30:01.147Z,16.48
2022-08-11T06:31:00.791Z,16.54
2022-08-11T06:32:00.775Z,16.72
2022-08-11T06:33:01.023Z,16.85
2022-08-11T06:34:00.763Z,16.91
2022-08-11T06:35:00.766Z,16.97
2022-08-11T06:36:00.749Z,17
2022-08-11T06:37:00.999Z,16.95
2022-08-11T06:38:04.173Z,16.97
2022-08-11T06:39:00.736Z,17.17
2022-08-11T06:40:01.173Z,17.1
2022-08-11T06:41:00.972Z,17.15
2022-08-11T06:42:00.460Z,17.2
2022-08-11T06:43:00.967Z,17.28
2022-08-11T06:44:07.042Z,17.22
2022-08-11T06:45:00.695Z,17.28
2022-08-11T06:46:00.689Z,17.35
2022-08-11T06:47:00.940Z,17.4
2022-08-11T06:48:00.673Z,17.46
2022-08-11T06:49:00.666Z,17.54
2022-08-11T06:50:01.309Z,17.68
2022-08-11T06:51:00.656Z,18.06
2022-08-11T06:52:07.066Z,18.42
2022-08-11T06:53:00.904Z,18.61
2022-08-11T06:54:09.257Z,19.28
2022-08-11T06:55:00.378Z,19.98
2022-08-11T06:56:03.834Z,21.3
2022-08-11T06:57:32.898Z,22.86
2022-08-11T06:58:00.873Z,23.35
2022-08-11T06:59:01.055Z,24.39
2022-08-11T07:00:00.855Z,25.34
2022-08-11T07:01:00.602Z,26.17
2022-08-11T07:02:00.782Z,26.91
2022-08-11T07:03:00.900Z,27.57
2022-08-11T07:04:00.860Z,28.16
2022-08-11T07:05:00.597Z,28.55
2022-08-11T07:06:00.329Z,28.91
2022-08-11T07:07:00.847Z,29.35
2022-08-11T07:08:36.097Z,29.89
2022-08-11T07:09:00.583Z,30.07
2022-08-11T07:10:00.348Z,30.32
2022-08-11T07:11:00.845Z,30.28
2022-08-11T07:12:00.910Z,30.25
2022-08-11T07:13:00.584Z,30.22
2022-08-11T07:14:00.830Z,30.54
2022-08-11T07:15:05.253Z,30.81
2022-08-11T07:16:17.013Z,31.21
2022-08-11T07:17:00.833Z,31.44
2022-08-11T07:18:00.326Z,31.28
2022-08-11T07:19:00.583Z,31.34
2022-08-11T07:20:01.455Z,31.56
2022-08-11T07:21:06.288Z,31.78
2022-08-11T07:22:12.812Z,31.9
2022-08-11T07:23:14.246Z,32.2
2022-08-11T07:24:12.565Z,32.32
2022-08-11T07:25:12.810Z,32.43
2022-08-11T07:26:12.563Z,32.74
2022-08-11T07:27:12.564Z,32.83
2022-08-11T07:28:12.823Z,33.09
2022-08-11T07:29:12.316Z,33.37
2022-08-11T07:30:12.574Z,33.39
2022-08-11T07:31:12.574Z,33.56
2022-08-11T07:32:12.834Z,33.39
2022-08-11T07:34:04.944Z,33.43
2022-08-11T07:34:23.329Z,33.5
2022-08-11T07:35:23.504Z,33.73
2022-08-11T07:36:28.596Z,33.81
2022-08-11T07:37:23.515Z,33.99
2022-08-11T07:38:27.781Z,34.1
2022-08-11T07:39:23.642Z,34.06
2022-08-11T07:40:23.531Z,34.12
2022-08-11T07:41:23.271Z,34.54
2022-08-11T07:42:26.254Z,34.52
2022-08-11T07:43:23.543Z,34.72
2022-08-11T07:44:23.289Z,34.75
2022-08-11T07:45:23.556Z,34.61
2022-08-11T07:46:23.304Z,34.78
2022-08-11T07:47:23.324Z,34.69
2022-08-11T07:48:23.057Z,34.56
2022-08-11T07:49:25.463Z,34.46
2022-08-11T07:50:23.581Z,34.14
2022-08-11T07:51:23.319Z,33.47
2022-08-11T07:52:23.074Z,33.11
2022-08-11T07:53:23.343Z,32.75
2022-08-11T07:54:23.768Z,32.35
2022-08-11T07:55:53.569Z,31.88
2022-08-11T07:57:07.694Z,31.33
2022-08-11T07:58:29.973Z,30.49
2022-08-11T08:00:05.693Z,29.81
2022-08-11T08:00:31.974Z,29.75
2022-08-11T08:01:27.528Z,29.4
2022-08-11T08:02:25.488Z,28.95
2022-08-11T08:03:25.173Z,28.51
2022-08-11T08:04:25.179Z,28.06
2022-08-11T08:05:25.183Z,27.89
2022-08-11T08:06:40.780Z,27.49
2022-08-11T08:07:25.186Z,27.43
2022-08-11T08:08:25.575Z,27.3
2022-08-11T08:09:25.188Z,27.12
2022-08-11T08:10:25.450Z,26.86
2022-08-11T08:11:32.041Z,26.68
2022-08-11T08:12:25.205Z,26.45
2022-08-11T08:13:24.943Z,26.45
2022-08-11T08:14:25.454Z,26.22
2022-08-11T08:15:25.458Z,26.03
2022-08-11T08:16:25.206Z,25.78
2022-08-11T08:17:24.948Z,25.59
2022-08-11T08:18:32.083Z,25.42
2022-08-11T08:19:25.217Z,25.49
2022-08-11T08:20:25.018Z,25.52
2022-08-11T08:21:24.954Z,25.54
2022-08-11T08:22:48.866Z,25.39
2022-08-11T08:23:25.470Z,25.34
2022-08-11T08:24:25.470Z,25.38
2022-08-11T08:25:25.474Z,25.42
2022-08-11T08:26:24.961Z,25.59
2022-08-11T08:27:25.474Z,25.48
2022-08-11T08:28:29.003Z,25.62
2022-08-11T08:29:25.228Z,25.59
2022-08-11T08:30:25.226Z,25.59
2022-08-11T08:31:25.229Z,25.62
2022-08-11T08:32:25.228Z,25.54
2022-08-11T08:33:25.484Z,25.37
2022-08-11T08:34:25.475Z,25.27
2022-08-11T08:35:28.264Z,25.22
2022-08-11T08:36:25.227Z,25.23
2022-08-11T08:37:51.667Z,25.29
2022-08-11T08:38:25.244Z,25.27
2022-08-11T08:39:25.346Z,25.3
2022-08-11T08:40:25.377Z,25.27
2022-08-11T08:41:25.484Z,25.38
2022-08-11T08:42:25.584Z,25.42
2022-08-11T08:43:25.245Z,25.47
2022-08-11T08:44:45.049Z,25.49
2022-08-11T08:45:25.483Z,25.52
2022-08-11T08:46:25.242Z,25.62
2022-08-11T08:47:53.177Z,25.7
2022-08-11T08:48:24.971Z,25.63
2022-08-11T08:49:24.972Z,25.63
2022-08-11T08:50:32.181Z,25.54
2022-08-11T08:51:26.901Z,25.47
2022-08-11T08:52:49.576Z,25.52
2022-08-11T08:54:00.644Z,25.34
2022-08-11T08:54:44.865Z,25.33
2022-08-11T08:55:49.998Z,25.38
2022-08-11T08:56:44.864Z,25.37
2022-08-11T08:57:45.531Z,25.24
2022-08-11T08:58:44.605Z,25.27
2022-08-11T08:59:54.218Z,25.15
2022-08-11T09:00:45.143Z,25.26
2022-08-11T09:01:45.117Z,25.26
2022-08-11T09:02:45.020Z,25.37
2022-08-11T09:04:17.501Z,25.33
2022-08-11T09:04:44.869Z,25.39
2022-08-11T09:05:44.884Z,25.37
2022-08-11T09:06:45.262Z,25.49
2022-08-11T09:07:45.986Z,25.57
2022-08-11T09:08:45.129Z,25.76
2022-08-11T09:09:45.125Z,25.89
2022-08-11T09:10:45.134Z,25.89
2022-08-11T09:11:45.123Z,26.06
2022-08-11T09:12:45.015Z,26.11
2022-08-11T09:13:44.861Z,26.12
2022-08-11T09:14:45.124Z,26.12
2022-08-11T09:15:44.910Z,26.23
2022-08-11T09:16:44.621Z,26.35
2022-08-11T09:17:45.412Z,26.45
2022-08-11T09:18:44.861Z,26.41
2022-08-11T09:19:56.635Z,26.31
2022-08-11T09:20:44.619Z,26.31
2022-08-11T09:21:54.366Z,26.24
2022-08-11T09:22:44.938Z,26.24
2022-08-11T09:24:26.233Z,26.24
2022-08-11T09:24:44.862Z,26.3
2022-08-11T09:25:44.885Z,26.39
2022-08-11T09:26:44.609Z,26.37
2022-08-11T09:27:55.061Z,26.45
2022-08-11T09:28:45.134Z,26.47
2022-08-11T09:29:44.865Z,26.45
2022-08-11T09:30:44.864Z,26.5
2022-08-11T09:31:45.217Z,26.57
2022-08-11T09:32:44.866Z,26.59
2022-08-11T09:33:47.525Z,26.68
2022-08-11T09:34:44.867Z,26.52
2022-08-11T09:35:44.868Z,26.44
2022-08-11T09:36:44.871Z,26.32
2022-08-11T09:38:01.765Z,26.2
2022-08-11T09:38:49.805Z,26.03
2022-08-11T09:39:46.221Z,25.94
2022-08-11T09:40:58.293Z,26.04
2022-08-11T09:42:06.796Z,26.03
2022-08-11T09:42:45.671Z,26.06
2022-08-11T09:43:45.680Z,26.17
2022-08-11T09:44:45.747Z,26.31
2022-08-11T09:45:45.674Z,26.41
2022-08-11T09:46:45.674Z,26.63
2022-08-11T09:47:45.933Z,26.67
2022-08-11T09:48:45.669Z,26.84
2022-08-11T09:49:45.677Z,26.76
2022-08-11T09:50:45.675Z,26.76
2022-08-11T09:52:07.466Z,26.61
2022-08-11T09:53:40.731Z,26.57
2022-08-11T09:54:10.210Z,26.6
2022-08-11T09:55:09.697Z,26.61
2022-08-11T09:56:09.952Z,26.76
2022-08-11T09:57:10.205Z,26.84
2022-08-11T09:58:09.957Z,26.79
2022-08-11T09:59:09.955Z,26.94
2022-08-11T10:00:17.722Z,26.97
2022-08-11T10:01:10.217Z,27.06
2022-08-11T10:02:10.216Z,26.99
2022-08-11T10:03:09.958Z,26.94
2022-08-11T10:04:09.960Z,26.91
2022-08-11T10:05:09.965Z,26.9
2022-08-11T10:06:13.274Z,26.93
2022-08-11T10:07:09.962Z,26.78
2022-08-11T10:08:09.964Z,26.89
2022-08-11T10:09:09.963Z,26.93
2022-08-11T10:10:09.702Z,26.74
2022-08-11T10:11:09.960Z,26.71
2022-08-11T10:12:09.963Z,26.6
2022-08-11T10:14:39.088Z,26.61
2022-08-11T10:14:53.602Z,26.57
2022-08-11T10:16:19.326Z,26.5
2022-08-11T10:16:53.603Z,26.57
2022-08-11T10:17:53.349Z,26.67
2022-08-11T10:18:53.525Z,26.68
2022-08-11T10:20:09.824Z,26.64
2022-08-11T10:20:53.649Z,26.6
2022-08-11T10:21:53.607Z,26.6
2022-08-11T10:22:53.101Z,26.74
2022-08-11T10:24:09.773Z,26.82
2022-08-11T10:24:53.347Z,26.89
2022-08-11T10:25:53.615Z,26.86
2022-08-11T10:26:56.107Z,26.93
2022-08-11T10:29:11.848Z,26.97
2022-08-11T10:29:24.153Z,26.94
2022-08-11T10:30:26.455Z,26.94
2022-08-11T10:31:23.294Z,26.86
2022-08-11T10:32:31.576Z,26.9
2022-08-11T10:34:01.881Z,26.91
2022-08-11T10:34:30.727Z,26.91
2022-08-11T10:35:23.808Z,27.08
2022-08-11T10:36:23.562Z,27.23
2022-08-11T10:37:24.255Z,27.26
2022-08-11T10:38:24.516Z,27.36
2022-08-11T10:39:24.584Z,27.28
2022-08-11T10:40:24.284Z,27.27
2022-08-11T10:41:24.005Z,27.27
2022-08-11T10:43:00.240Z,27.28
2022-08-11T10:44:07.484Z,27.19
2022-08-11T10:44:24.520Z,27.23
2022-08-11T10:45:24.525Z,27.27
2022-08-11T10:46:34.210Z,27.28
2022-08-11T10:47:24.269Z,27.36
2022-08-11T10:48:24.521Z,27.36
2022-08-11T10:49:24.528Z,27.41
2022-08-11T10:50:24.543Z,27.38
2022-08-11T10:52:01.036Z,27.46
2022-08-11T10:52:24.273Z,27.42
2022-08-11T10:53:24.528Z,27.46
2022-08-11T10:54:24.533Z,27.52
2022-08-11T10:55:24.618Z,27.69
2022-08-11T10:56:24.275Z,27.75
2022-08-11T10:57:24.293Z,27.76
2022-08-11T10:58:24.530Z,27.66
2022-08-11T10:59:24.282Z,27.61
2022-08-11T11:00:24.541Z,27.43
2022-08-11T11:01:24.212Z,27.34
2022-08-11T11:02:24.289Z,27.33
2022-08-11T11:03:28.424Z,27.27
2022-08-11T11:04:24.288Z,27.27
2022-08-11T11:05:24.030Z,27.27
2022-08-11T11:06:33.646Z,27.08
2022-08-11T11:07:24.554Z,27.05
2022-08-11T11:08:24.291Z,27.15
2022-08-11T11:09:24.303Z,27.08
2022-08-11T11:10:24.297Z,27.08
2022-08-11T11:11:24.293Z,26.96
2022-08-11T11:12:24.555Z,26.89
2022-08-11T11:13:24.553Z,26.9
2022-08-11T11:14:29.330Z,27.04
2022-08-11T11:15:24.567Z,26.91
2022-08-11T11:16:24.623Z,26.78
2022-08-11T11:17:24.561Z,26.54
2022-08-11T11:18:24.561Z,26.49
2022-08-11T11:19:24.306Z,26.54
2022-08-11T11:20:48.784Z,26.57
2022-08-11T11:21:24.326Z,26.64
2022-08-11T11:22:24.298Z,26.63
2022-08-11T11:23:24.301Z,26.69
2022-08-11T11:24:24.307Z,26.89
2022-08-11T11:25:24.047Z,26.99
2022-08-11T11:26:32.112Z,26.97
2022-08-11T11:27:24.306Z,26.89
2022-08-11T11:28:24.562Z,26.76
2022-08-11T11:29:24.306Z,26.5
2022-08-11T11:30:24.560Z,26.39
2022-08-11T11:31:24.304Z,26.44
2022-08-11T11:32:24.564Z,26.5
2022-08-11T11:33:24.564Z,26.61
2022-08-11T11:34:24.615Z,26.67
2022-08-11T11:35:25.929Z,26.76
2022-08-11T11:36:25.109Z,26.67
2022-08-11T11:37:24.560Z,26.74
2022-08-11T11:38:24.308Z,26.63
2022-08-11T11:39:24.478Z,26.63
2022-08-11T11:40:33.050Z,26.78
2022-08-11T11:41:24.578Z,26.64
2022-08-11T11:42:24.574Z,26.68
2022-08-11T11:43:24.056Z,26.67
2022-08-11T11:44:24.324Z,26.69
2022-08-11T11:45:28.870Z,26.78
2022-08-11T11:46:30.249Z,26.76
2022-08-11T11:47:26.750Z,26.81
2022-08-11T11:48:24.573Z,26.57
2022-08-11T11:50:24.323Z,26.49
2022-08-11T11:51:24.064Z,26.53
2022-08-11T11:52:24.337Z,26.54
2022-08-11T11:53:24.321Z,26.49
2022-08-11T11:54:24.577Z,26.54
2022-08-11T11:55:24.565Z,26.63
2022-08-11T11:56:24.576Z,26.69
2022-08-11T11:57:24.331Z,26.79
2022-08-11T11:58:27.535Z,26.96
2022-08-11T11:59:24.581Z,27.04
2022-08-11T12:00:24.582Z,27.09
2022-08-11T12:01:24.161Z,27.23
2022-08-11T12:02:24.596Z,27.27
2022-08-11T12:03:24.399Z,27.21
2022-08-11T12:04:24.582Z,27.18
2022-08-11T12:05:24.329Z,27.11
2022-08-11T12:06:24.913Z,27.09
2022-08-11T12:07:24.592Z,27.08
2022-08-11T12:08:30.044Z,27.16
2022-08-11T12:09:26.974Z,27.12
2022-08-11T12:10:24.338Z,27.06
2022-08-11T12:11:24.362Z,27.13
2022-08-11T12:12:24.342Z,26.93
2022-08-11T12:13:24.596Z,26.99
2022-08-11T12:14:24.337Z,26.94
2022-08-11T12:16:36.915Z,26.94
2022-08-11T12:16:46.200Z,26.89
2022-08-11T12:17:49.847Z,26.89
2022-08-11T12:18:46.199Z,26.87
2022-08-11T12:19:53.039Z,26.89
2022-08-11T12:20:46.463Z,26.79
2022-08-11T12:22:03.057Z,26.76
2022-08-11T12:22:45.950Z,26.76
2022-08-11T12:23:45.960Z,26.76
2022-08-11T12:24:46.366Z,26.82
2022-08-11T12:25:45.968Z,26.86
2022-08-11T12:27:15.579Z,26.79
2022-08-11T12:27:46.421Z,26.74
2022-08-11T12:28:45.959Z,26.75
2022-08-11T12:29:55.248Z,26.79
2022-08-11T12:30:46.653Z,26.82
2022-08-11T12:31:46.221Z,26.81
2022-08-11T12:32:46.757Z,26.9
2022-08-11T12:33:46.219Z,26.93
2022-08-11T12:34:46.221Z,27.01
2022-08-11T12:36:05.010Z,27.08
2022-08-11T12:36:46.491Z,27.11
2022-08-11T12:37:46.625Z,27.08
2022-08-11T12:38:52.722Z,27.09
2022-08-11T12:41:15.943Z,27.11
2022-08-11T12:41:28.392Z,27.05
2022-08-11T12:42:31.610Z,26.99
2022-08-11T12:43:41.661Z,26.84
2022-08-11T12:44:29.871Z,26.79
2022-08-11T12:45:28.403Z,26.81
2022-08-11T12:46:28.412Z,26.82
2022-08-11T12:47:28.413Z,26.79
2022-08-11T12:49:05.578Z,26.91
2022-08-11T12:49:27.899Z,26.89
2022-08-11T12:50:28.571Z,26.99
2022-08-11T12:51:28.270Z,26.9
2022-08-11T12:52:28.422Z,26.91
2022-08-11T12:53:28.328Z,26.89
2022-08-11T12:54:28.160Z,26.84
2022-08-11T12:55:27.903Z,26.84
2022-08-11T12:56:28.161Z,26.76
2022-08-11T12:57:41.238Z,26.76
2022-08-11T12:58:28.441Z,26.78
2022-08-11T12:59:28.418Z,26.76
2022-08-11T13:00:28.459Z,26.78
2022-08-11T13:01:28.752Z,26.78
2022-08-11T13:02:41.223Z,26.72
2022-08-11T13:03:28.171Z,26.76
2022-08-11T13:04:27.920Z,26.63
2022-08-11T13:05:28.173Z,26.78
2022-08-11T13:06:28.174Z,26.79
2022-08-11T13:07:28.174Z,26.81
2022-08-11T13:08:28.218Z,26.84
2022-08-11T13:09:28.172Z,26.82
2022-08-11T13:10:28.235Z,26.82
2022-08-11T13:11:59.687Z,26.91
2022-08-11T13:12:28.436Z,26.9
2022-08-11T13:14:01.211Z,26.91
2022-08-11T13:14:28.440Z,26.86
2022-08-11T13:15:28.439Z,26.89
2022-08-11T13:16:28.457Z,26.78
2022-08-11T13:17:48.626Z,26.81
2022-08-11T13:18:28.193Z,26.86
2022-08-11T13:19:27.979Z,26.82
2022-08-11T13:20:28.190Z,26.86